sensor_id;sensor_type;location;lat;lon;timestamp;P1;durP1;ratioP1;P2;durP2;ratioP2
21798;SDS011;24973;47.178;15.316;2023-09-19T00:00:17;7.73;;;5.37;;
21798;SDS011;24973;47.178;15.316;2023-09-19T00:03:08;13.20;;;5.90;;
21798;SDS011;24973;47.178;15.316;2023-09-19T00:05:58;8.30;;;5.37;;
21798;SDS011;24973;47.178;15.316;2023-09-19T00:08:47;12.07;;;5.37;;
21798;SDS011;24973;47.178;15.316;2023-09-19T00:11:36;7.53;;;5.47;;
21798;SDS011;24973;47.178;15.316;2023-09-19T00:14:26;12.80;;;5.97;;
21798;SDS011;24973;47.178;15.316;2023-09-19T00:17:15;12.57;;;5.67;;
21798;SDS011;24973;47.178;15.316;2023-09-19T00:20:06;7.53;;;5.33;;
21798;SDS011;24973;47.178;15.316;2023-09-19T00:22:59;10.60;;;5.57;;
21798;SDS011;24973;47.178;15.316;2023-09-19T00:25:58;7.67;;;6.03;;
21798;SDS011;24973;47.178;15.316;2023-09-19T00:28:47;23.80;;;5.73;;
21798;SDS011;24973;47.178;15.316;2023-09-19T00:31:36;8.67;;;5.60;;
21798;SDS011;24973;47.178;15.316;2023-09-19T00:34:26;11.83;;;5.47;;
21798;SDS011;24973;47.178;15.316;2023-09-19T00:37:16;8.30;;;5.00;;
21798;SDS011;24973;47.178;15.316;2023-09-19T00:40:06;7.80;;;6.93;;
21798;SDS011;24973;47.178;15.316;2023-09-19T00:42:58;6.53;;;3.33;;
21798;SDS011;24973;47.178;15.316;2023-09-19T00:45:48;8.83;;;3.07;;
21798;SDS011;24973;47.178;15.316;2023-09-19T00:48:40;8.17;;;2.30;;
21798;SDS011;24973;47.178;15.316;2023-09-19T00:51:30;3.97;;;2.30;;
21798;SDS011;24973;47.178;15.316;2023-09-19T00:54:20;5.77;;;3.63;;
21798;SDS011;24973;47.178;15.316;2023-09-19T00:57:09;10.53;;;3.23;;
21798;SDS011;24973;47.178;15.316;2023-09-19T00:59:58;4.70;;;2.77;;
21798;SDS011;24973;47.178;15.316;2023-09-19T01:02:52;7.73;;;3.00;;
21798;SDS011;24973;47.178;15.316;2023-09-19T01:05:41;3.57;;;2.43;;
21798;SDS011;24973;47.178;15.316;2023-09-19T01:08:30;4.37;;;2.60;;
21798;SDS011;24973;47.178;15.316;2023-09-19T01:11:26;2.73;;;1.97;;
21798;SDS011;24973;47.178;15.316;2023-09-19T01:14:24;4.70;;;2.43;;
21798;SDS011;24973;47.178;15.316;2023-09-19T01:17:20;8.30;;;2.70;;
21798;SDS011;24973;47.178;15.316;2023-09-19T01:20:25;9.80;;;2.90;;
21798;SDS011;24973;47.178;15.316;2023-09-19T01:23:20;4.60;;;2.87;;
21798;SDS011;24973;47.178;15.316;2023-09-19T01:26:17;5.83;;;3.30;;
21798;SDS011;24973;47.178;15.316;2023-09-19T01:29:23;10.77;;;3.03;;
21798;SDS011;24973;47.178;15.316;2023-09-19T01:32:22;3.57;;;2.50;;
21798;SDS011;24973;47.178;15.316;2023-09-19T01:35:12;3.73;;;2.37;;
21798;SDS011;24973;47.178;15.316;2023-09-19T01:38:01;8.17;;;3.63;;
21798;SDS011;24973;47.178;15.316;2023-09-19T01:40:52;3.60;;;3.00;;
21798;SDS011;24973;47.178;15.316;2023-09-19T01:43:50;6.47;;;2.40;;
21798;SDS011;24973;47.178;15.316;2023-09-19T01:46:40;3.43;;;2.33;;
21798;SDS011;24973;47.178;15.316;2023-09-19T01:49:33;5.17;;;2.10;;
21798;SDS011;24973;47.178;15.316;2023-09-19T01:52:26;6.03;;;2.40;;
21798;SDS011;24973;47.178;15.316;2023-09-19T01:55:18;5.20;;;1.60;;
21798;SDS011;24973;47.178;15.316;2023-09-19T01:58:12;4.53;;;1.83;;
21798;SDS011;24973;47.178;15.316;2023-09-19T02:01:04;6.03;;;2.70;;
21798;SDS011;24973;47.178;15.316;2023-09-19T02:03:54;4.33;;;1.90;;
21798;SDS011;24973;47.178;15.316;2023-09-19T02:06:45;5.63;;;1.93;;
21798;SDS011;24973;47.178;15.316;2023-09-19T02:09:34;7.33;;;1.97;;
21798;SDS011;24973;47.178;15.316;2023-09-19T02:12:25;2.83;;;1.87;;
21798;SDS011;24973;47.178;15.316;2023-09-19T02:15:15;2.73;;;1.53;;
21798;SDS011;24973;47.178;15.316;2023-09-19T02:18:04;1.70;;;1.47;;
21798;SDS011;24973;47.178;15.316;2023-09-19T02:20:53;3.33;;;2.00;;
21798;SDS011;24973;47.178;15.316;2023-09-19T02:23:44;3.43;;;1.43;;
21798;SDS011;24973;47.178;15.316;2023-09-19T02:26:34;1.40;;;0.90;;
21798;SDS011;24973;47.178;15.316;2023-09-19T02:29:23;5.87;;;1.97;;
21798;SDS011;24973;47.178;15.316;2023-09-19T02:32:13;3.87;;;2.30;;
21798;SDS011;24973;47.178;15.316;2023-09-19T02:35:06;4.10;;;1.70;;
21798;SDS011;24973;47.178;15.316;2023-09-19T02:37:57;1.00;;;0.90;;
21798;SDS011;24973;47.178;15.316;2023-09-19T02:40:48;1.00;;;0.90;;
21798;SDS011;24973;47.178;15.316;2023-09-19T02:43:37;1.67;;;1.00;;
21798;SDS011;24973;47.178;15.316;2023-09-19T02:46:26;1.23;;;0.80;;
21798;SDS011;24973;47.178;15.316;2023-09-19T02:49:15;0.83;;;0.83;;
21798;SDS011;24973;47.178;15.316;2023-09-19T02:52:04;3.63;;;1.23;;
21798;SDS011;24973;47.178;15.316;2023-09-19T02:54:54;0.90;;;0.90;;
21798;SDS011;24973;47.178;15.316;2023-09-19T02:57:46;3.97;;;1.27;;
21798;SDS011;24973;47.178;15.316;2023-09-19T03:00:35;1.60;;;1.50;;
21798;SDS011;24973;47.178;15.316;2023-09-19T03:03:25;1.43;;;0.97;;
21798;SDS011;24973;47.178;15.316;2023-09-19T03:06:15;3.97;;;1.10;;
21798;SDS011;24973;47.178;15.316;2023-09-19T03:09:06;8.80;;;1.03;;
21798;SDS011;24973;47.178;15.316;2023-09-19T03:11:57;1.70;;;1.10;;
21798;SDS011;24973;47.178;15.316;2023-09-19T03:14:49;0.77;;;0.77;;
21798;SDS011;24973;47.178;15.316;2023-09-19T03:17:38;2.13;;;1.10;;
21798;SDS011;24973;47.178;15.316;2023-09-19T03:20:31;2.90;;;1.40;;
21798;SDS011;24973;47.178;15.316;2023-09-19T03:23:20;3.33;;;1.10;;
21798;SDS011;24973;47.178;15.316;2023-09-19T03:26:09;2.17;;;1.20;;
21798;SDS011;24973;47.178;15.316;2023-09-19T03:28:59;1.97;;;1.83;;
21798;SDS011;24973;47.178;15.316;2023-09-19T03:31:54;1.63;;;1.00;;
21798;SDS011;24973;47.178;15.316;2023-09-19T03:34:43;1.80;;;0.90;;
21798;SDS011;24973;47.178;15.316;2023-09-19T03:37:35;2.57;;;1.10;;
21798;SDS011;24973;47.178;15.316;2023-09-19T03:40:24;1.37;;;0.97;;
21798;SDS011;24973;47.178;15.316;2023-09-19T03:43:13;1.10;;;1.00;;
21798;SDS011;24973;47.178;15.316;2023-09-19T03:46:02;3.17;;;1.57;;
21798;SDS011;24973;47.178;15.316;2023-09-19T03:48:53;0.90;;;0.80;;
21798;SDS011;24973;47.178;15.316;2023-09-19T03:51:42;1.27;;;1.10;;
21798;SDS011;24973;47.178;15.316;2023-09-19T03:54:31;1.63;;;1.17;;
21798;SDS011;24973;47.178;15.316;2023-09-19T03:57:20;1.43;;;1.13;;
21798;SDS011;24973;47.178;15.316;2023-09-19T04:00:09;2.57;;;1.10;;
21798;SDS011;24973;47.178;15.316;2023-09-19T04:03:01;2.30;;;1.10;;
21798;SDS011;24973;47.178;15.316;2023-09-19T04:05:54;1.60;;;1.30;;
21798;SDS011;24973;47.178;15.316;2023-09-19T04:08:43;1.00;;;0.80;;
21798;SDS011;24973;47.178;15.316;2023-09-19T04:11:34;1.43;;;0.77;;
21798;SDS011;24973;47.178;15.316;2023-09-19T04:14:23;6.13;;;1.13;;
21798;SDS011;24973;47.178;15.316;2023-09-19T04:17:12;2.27;;;1.07;;
21798;SDS011;24973;47.178;15.316;2023-09-19T04:20:01;2.67;;;0.87;;
21798;SDS011;24973;47.178;15.316;2023-09-19T04:22:55;1.30;;;1.20;;
21798;SDS011;24973;47.178;15.316;2023-09-19T04:25:44;0.90;;;0.83;;
21798;SDS011;24973;47.178;15.316;2023-09-19T04:28:33;1.27;;;0.90;;
21798;SDS011;24973;47.178;15.316;2023-09-19T04:31:25;2.40;;;1.10;;
21798;SDS011;24973;47.178;15.316;2023-09-19T04:34:14;2.10;;;1.90;;
21798;SDS011;24973;47.178;15.316;2023-09-19T04:37:03;0.90;;;0.80;;
21798;SDS011;24973;47.178;15.316;2023-09-19T04:39:53;0.80;;;0.80;;
21798;SDS011;24973;47.178;15.316;2023-09-19T04:42:43;2.73;;;0.80;;
21798;SDS011;24973;47.178;15.316;2023-09-19T04:45:32;1.77;;;1.07;;
21798;SDS011;24973;47.178;15.316;2023-09-19T04:48:22;1.23;;;0.83;;
21798;SDS011;24973;47.178;15.316;2023-09-19T04:51:11;2.63;;;1.30;;
21798;SDS011;24973;47.178;15.316;2023-09-19T04:54:01;2.93;;;1.30;;
21798;SDS011;24973;47.178;15.316;2023-09-19T04:56:52;3.83;;;1.70;;
21798;SDS011;24973;47.178;15.316;2023-09-19T04:59:41;2.40;;;0.87;;
21798;SDS011;24973;47.178;15.316;2023-09-19T05:02:30;5.73;;;1.47;;
21798;SDS011;24973;47.178;15.316;2023-09-19T05:05:22;2.17;;;1.40;;
21798;SDS011;24973;47.178;15.316;2023-09-19T05:08:12;3.73;;;1.33;;
21798;SDS011;24973;47.178;15.316;2023-09-19T05:11:02;1.97;;;1.20;;
21798;SDS011;24973;47.178;15.316;2023-09-19T05:13:52;4.00;;;1.60;;
21798;SDS011;24973;47.178;15.316;2023-09-19T05:16:41;3.43;;;1.70;;
21798;SDS011;24973;47.178;15.316;2023-09-19T05:19:30;3.00;;;1.70;;
21798;SDS011;24973;47.178;15.316;2023-09-19T05:22:21;1.00;;;0.90;;
21798;SDS011;24973;47.178;15.316;2023-09-19T05:25:11;2.67;;;1.33;;
21798;SDS011;24973;47.178;15.316;2023-09-19T05:28:03;1.17;;;0.97;;
21798;SDS011;24973;47.178;15.316;2023-09-19T05:30:53;1.83;;;0.83;;
21798;SDS011;24973;47.178;15.316;2023-09-19T05:33:42;1.23;;;1.00;;
21798;SDS011;24973;47.178;15.316;2023-09-19T05:36:31;1.13;;;1.03;;
21798;SDS011;24973;47.178;15.316;2023-09-19T05:39:20;0.97;;;0.87;;
21798;SDS011;24973;47.178;15.316;2023-09-19T05:42:09;1.43;;;0.93;;
21798;SDS011;24973;47.178;15.316;2023-09-19T05:44:58;2.90;;;1.30;;
21798;SDS011;24973;47.178;15.316;2023-09-19T05:47:49;1.50;;;1.00;;
21798;SDS011;24973;47.178;15.316;2023-09-19T05:50:42;2.20;;;1.00;;
21798;SDS011;24973;47.178;15.316;2023-09-19T05:53:35;4.33;;;1.13;;
21798;SDS011;24973;47.178;15.316;2023-09-19T05:56:24;1.50;;;1.37;;
21798;SDS011;24973;47.178;15.316;2023-09-19T05:59:13;1.80;;;1.23;;
21798;SDS011;24973;47.178;15.316;2023-09-19T06:02:03;1.60;;;1.13;;
21798;SDS011;24973;47.178;15.316;2023-09-19T06:04:54;0.83;;;0.63;;
21798;SDS011;24973;47.178;15.316;2023-09-19T06:07:43;1.20;;;1.10;;
21798;SDS011;24973;47.178;15.316;2023-09-19T06:10:32;1.10;;;0.80;;
21798;SDS011;24973;47.178;15.316;2023-09-19T06:13:21;1.97;;;0.93;;
21798;SDS011;24973;47.178;15.316;2023-09-19T06:16:13;0.97;;;0.83;;
21798;SDS011;24973;47.178;15.316;2023-09-19T06:19:02;0.80;;;0.80;;
21798;SDS011;24973;47.178;15.316;2023-09-19T06:21:54;4.13;;;0.97;;
21798;SDS011;24973;47.178;15.316;2023-09-19T06:24:46;1.70;;;1.00;;
21798;SDS011;24973;47.178;15.316;2023-09-19T06:27:35;2.03;;;0.90;;
21798;SDS011;24973;47.178;15.316;2023-09-19T06:30:24;0.67;;;0.67;;
21798;SDS011;24973;47.178;15.316;2023-09-19T06:33:16;2.17;;;1.10;;
21798;SDS011;24973;47.178;15.316;2023-09-19T06:36:07;1.23;;;0.83;;
21798;SDS011;24973;47.178;15.316;2023-09-19T06:38:57;1.13;;;0.80;;
21798;SDS011;24973;47.178;15.316;2023-09-19T06:41:46;0.70;;;0.60;;
21798;SDS011;24973;47.178;15.316;2023-09-19T06:44:35;1.33;;;1.13;;
21798;SDS011;24973;47.178;15.316;2023-09-19T06:47:24;2.27;;;0.90;;
21798;SDS011;24973;47.178;15.316;2023-09-19T06:50:13;2.73;;;0.97;;
21798;SDS011;24973;47.178;15.316;2023-09-19T06:53:05;2.90;;;1.10;;
21798;SDS011;24973;47.178;15.316;2023-09-19T06:55:55;2.23;;;0.93;;
21798;SDS011;24973;47.178;15.316;2023-09-19T06:58:45;1.37;;;1.00;;
21798;SDS011;24973;47.178;15.316;2023-09-19T07:01:34;1.47;;;1.10;;
21798;SDS011;24973;47.178;15.316;2023-09-19T07:04:24;1.20;;;0.80;;
21798;SDS011;24973;47.178;15.316;2023-09-19T07:07:13;4.43;;;1.10;;
21798;SDS011;24973;47.178;15.316;2023-09-19T07:10:02;0.73;;;0.73;;
21798;SDS011;24973;47.178;15.316;2023-09-19T07:12:57;1.43;;;0.93;;
21798;SDS011;24973;47.178;15.316;2023-09-19T07:15:46;2.77;;;1.00;;
21798;SDS011;24973;47.178;15.316;2023-09-19T07:18:36;1.00;;;0.90;;
21798;SDS011;24973;47.178;15.316;2023-09-19T07:21:25;1.73;;;1.30;;
21798;SDS011;24973;47.178;15.316;2023-09-19T07:24:15;2.83;;;1.13;;
21798;SDS011;24973;47.178;15.316;2023-09-19T07:27:04;3.47;;;1.07;;
21798;SDS011;24973;47.178;15.316;2023-09-19T07:29:55;2.30;;;1.17;;
21798;SDS011;24973;47.178;15.316;2023-09-19T07:32:44;1.20;;;0.83;;
21798;SDS011;24973;47.178;15.316;2023-09-19T07:35:33;1.57;;;1.00;;
21798;SDS011;24973;47.178;15.316;2023-09-19T07:38:22;2.07;;;1.07;;
21798;SDS011;24973;47.178;15.316;2023-09-19T07:41:11;1.33;;;1.00;;
21798;SDS011;24973;47.178;15.316;2023-09-19T07:44:00;2.63;;;1.23;;
21798;SDS011;24973;47.178;15.316;2023-09-19T07:46:51;1.17;;;1.03;;
21798;SDS011;24973;47.178;15.316;2023-09-19T07:49:40;3.27;;;1.00;;
21798;SDS011;24973;47.178;15.316;2023-09-19T07:52:29;2.20;;;1.33;;
21798;SDS011;24973;47.178;15.316;2023-09-19T07:55:20;2.67;;;1.47;;
21798;SDS011;24973;47.178;15.316;2023-09-19T07:58:11;2.30;;;1.43;;
21798;SDS011;24973;47.178;15.316;2023-09-19T08:01:03;4.30;;;1.37;;
21798;SDS011;24973;47.178;15.316;2023-09-19T08:03:54;3.37;;;1.50;;
21798;SDS011;24973;47.178;15.316;2023-09-19T08:06:43;3.73;;;0.97;;
21798;SDS011;24973;47.178;15.316;2023-09-19T08:09:32;1.13;;;0.60;;
21798;SDS011;24973;47.178;15.316;2023-09-19T08:12:23;0.70;;;0.70;;
21798;SDS011;24973;47.178;15.316;2023-09-19T08:15:13;3.20;;;0.93;;
21798;SDS011;24973;47.178;15.316;2023-09-19T08:18:02;8.17;;;1.00;;
21798;SDS011;24973;47.178;15.316;2023-09-19T08:20:57;1.00;;;0.90;;
21798;SDS011;24973;47.178;15.316;2023-09-19T08:23:47;1.90;;;0.97;;
21798;SDS011;24973;47.178;15.316;2023-09-19T08:26:36;2.90;;;1.10;;
21798;SDS011;24973;47.178;15.316;2023-09-19T08:29:25;1.97;;;1.20;;
21798;SDS011;24973;47.178;15.316;2023-09-19T08:32:16;1.13;;;0.90;;
21798;SDS011;24973;47.178;15.316;2023-09-19T08:35:06;2.13;;;0.73;;
21798;SDS011;24973;47.178;15.316;2023-09-19T08:37:57;3.43;;;1.23;;
21798;SDS011;24973;47.178;15.316;2023-09-19T08:40:50;2.97;;;0.97;;
21798;SDS011;24973;47.178;15.316;2023-09-19T08:43:39;1.20;;;0.97;;
21798;SDS011;24973;47.178;15.316;2023-09-19T08:46:29;1.20;;;0.93;;
21798;SDS011;24973;47.178;15.316;2023-09-19T08:49:19;1.63;;;1.00;;
21798;SDS011;24973;47.178;15.316;2023-09-19T08:52:19;3.10;;;0.93;;
21798;SDS011;24973;47.178;15.316;2023-09-19T08:55:12;1.77;;;1.10;;
21798;SDS011;24973;47.178;15.316;2023-09-19T08:58:09;2.60;;;1.17;;
21798;SDS011;24973;47.178;15.316;2023-09-19T09:00:59;1.77;;;0.97;;
21798;SDS011;24973;47.178;15.316;2023-09-19T09:03:49;1.17;;;0.93;;
21798;SDS011;24973;47.178;15.316;2023-09-19T09:06:39;1.63;;;1.10;;
21798;SDS011;24973;47.178;15.316;2023-09-19T09:09:30;3.13;;;0.83;;
21798;SDS011;24973;47.178;15.316;2023-09-19T09:12:20;3.53;;;0.90;;
21798;SDS011;24973;47.178;15.316;2023-09-19T09:15:09;3.77;;;1.47;;
21798;SDS011;24973;47.178;15.316;2023-09-19T09:18:03;3.33;;;0.70;;
21798;SDS011;24973;47.178;15.316;2023-09-19T09:20:52;5.27;;;1.20;;
21798;SDS011;24973;47.178;15.316;2023-09-19T09:23:42;1.07;;;0.93;;
21798;SDS011;24973;47.178;15.316;2023-09-19T09:26:41;1.10;;;0.90;;
21798;SDS011;24973;47.178;15.316;2023-09-19T09:29:45;1.20;;;1.07;;
21798;SDS011;24973;47.178;15.316;2023-09-19T09:32:36;6.03;;;1.00;;
21798;SDS011;24973;47.178;15.316;2023-09-19T09:35:29;5.13;;;0.90;;
21798;SDS011;24973;47.178;15.316;2023-09-19T09:38:19;2.03;;;1.50;;
21798;SDS011;24973;47.178;15.316;2023-09-19T09:41:10;2.30;;;0.90;;
21798;SDS011;24973;47.178;15.316;2023-09-19T09:44:11;1.97;;;1.30;;
21798;SDS011;24973;47.178;15.316;2023-09-19T09:47:03;4.20;;;1.20;;
21798;SDS011;24973;47.178;15.316;2023-09-19T09:50:12;3.10;;;1.60;;
21798;SDS011;24973;47.178;15.316;2023-09-19T09:53:05;2.00;;;1.47;;
21798;SDS011;24973;47.178;15.316;2023-09-19T09:56:08;4.03;;;1.30;;
21798;SDS011;24973;47.178;15.316;2023-09-19T09:58:59;3.87;;;1.77;;
21798;SDS011;24973;47.178;15.316;2023-09-19T10:01:49;5.43;;;1.60;;
21798;SDS011;24973;47.178;15.316;2023-09-19T10:04:41;2.43;;;1.87;;
21798;SDS011;24973;47.178;15.316;2023-09-19T10:07:38;3.43;;;1.30;;
21798;SDS011;24973;47.178;15.316;2023-09-19T10:10:30;1.70;;;1.30;;
21798;SDS011;24973;47.178;15.316;2023-09-19T10:13:40;3.07;;;1.90;;
21798;SDS011;24973;47.178;15.316;2023-09-19T10:16:29;2.30;;;1.70;;
21798;SDS011;24973;47.178;15.316;2023-09-19T10:19:21;2.33;;;1.60;;
21798;SDS011;24973;47.178;15.316;2023-09-19T10:22:17;4.23;;;1.90;;
21798;SDS011;24973;47.178;15.316;2023-09-19T10:25:08;2.73;;;1.27;;
21798;SDS011;24973;47.178;15.316;2023-09-19T10:28:00;1.13;;;0.90;;
21798;SDS011;24973;47.178;15.316;2023-09-19T10:30:51;1.33;;;1.00;;
21798;SDS011;24973;47.178;15.316;2023-09-19T10:33:41;1.90;;;1.10;;
21798;SDS011;24973;47.178;15.316;2023-09-19T10:36:31;3.80;;;1.30;;
21798;SDS011;24973;47.178;15.316;2023-09-19T10:39:23;2.13;;;1.30;;
21798;SDS011;24973;47.178;15.316;2023-09-19T10:42:14;1.47;;;1.30;;
21798;SDS011;24973;47.178;15.316;2023-09-19T10:45:07;3.47;;;2.20;;
21798;SDS011;24973;47.178;15.316;2023-09-19T10:48:00;2.03;;;1.20;;
21798;SDS011;24973;47.178;15.316;2023-09-19T10:50:51;1.47;;;1.20;;
21798;SDS011;24973;47.178;15.316;2023-09-19T10:53:43;6.37;;;4.37;;
21798;SDS011;24973;47.178;15.316;2023-09-19T10:56:43;4.10;;;2.30;;
21798;SDS011;24973;47.178;15.316;2023-09-19T10:59:35;1.53;;;1.20;;
21798;SDS011;24973;47.178;15.316;2023-09-19T11:02:26;2.27;;;1.47;;
21798;SDS011;24973;47.178;15.316;2023-09-19T11:05:15;2.17;;;1.30;;
21798;SDS011;24973;47.178;15.316;2023-09-19T11:08:04;2.00;;;1.50;;
21798;SDS011;24973;47.178;15.316;2023-09-19T11:10:54;1.33;;;1.20;;
21798;SDS011;24973;47.178;15.316;2023-09-19T11:13:47;5.63;;;1.43;;
21798;SDS011;24973;47.178;15.316;2023-09-19T11:17:30;3.50;;;1.87;;
21798;SDS011;24973;47.178;15.316;2023-09-19T11:20:20;3.47;;;1.70;;
21798;SDS011;24973;47.178;15.316;2023-09-19T11:23:27;5.10;;;1.30;;
21798;SDS011;24973;47.178;15.316;2023-09-19T11:26:32;2.83;;;1.70;;
21798;SDS011;24973;47.178;15.316;2023-09-19T11:29:31;1.67;;;1.27;;
21798;SDS011;24973;47.178;15.316;2023-09-19T11:36:03;2.87;;;1.40;;
21798;SDS011;24973;47.178;15.316;2023-09-19T11:38:59;4.23;;;1.20;;
21798;SDS011;24973;47.178;15.316;2023-09-19T11:42:01;3.17;;;1.00;;
21798;SDS011;24973;47.178;15.316;2023-09-19T11:48:51;1.85;;;1.35;;
21798;SDS011;24973;47.178;15.316;2023-09-19T11:51:41;1.50;;;1.23;;
21798;SDS011;24973;47.178;15.316;2023-09-19T11:54:31;3.65;;;1.05;;
21798;SDS011;24973;47.178;15.316;2023-09-19T11:57:20;1.00;;;0.90;;
21798;SDS011;24973;47.178;15.316;2023-09-19T12:00:16;2.10;;;1.45;;
21798;SDS011;24973;47.178;15.316;2023-09-19T12:03:07;2.72;;;1.42;;
21798;SDS011;24973;47.178;15.316;2023-09-19T12:05:58;1.33;;;0.95;;
21798;SDS011;24973;47.178;15.316;2023-09-19T12:08:49;2.70;;;1.35;;
21798;SDS011;24973;47.178;15.316;2023-09-19T12:11:41;1.65;;;1.25;;
21798;SDS011;24973;47.178;15.316;2023-09-19T12:14:30;3.25;;;1.30;;
21798;SDS011;24973;47.178;15.316;2023-09-19T12:17:20;1.50;;;1.33;;
21798;SDS011;24973;47.178;15.316;2023-09-19T12:20:12;3.25;;;1.23;;
21798;SDS011;24973;47.178;15.316;2023-09-19T12:23:01;3.43;;;1.77;;
21798;SDS011;24973;47.178;15.316;2023-09-19T12:26:02;1.20;;;1.07;;
21798;SDS011;24973;47.178;15.316;2023-09-19T12:28:59;2.43;;;1.30;;
21798;SDS011;24973;47.178;15.316;2023-09-19T12:31:52;1.87;;;1.07;;
21798;SDS011;24973;47.178;15.316;2023-09-19T12:34:50;1.87;;;1.30;;
21798;SDS011;24973;47.178;15.316;2023-09-19T12:37:43;1.47;;;1.20;;
21798;SDS011;24973;47.178;15.316;2023-09-19T12:40:35;3.77;;;1.30;;
21798;SDS011;24973;47.178;15.316;2023-09-19T12:43:25;1.43;;;1.10;;
21798;SDS011;24973;47.178;15.316;2023-09-19T12:46:14;1.27;;;1.20;;
21798;SDS011;24973;47.178;15.316;2023-09-19T12:49:14;1.70;;;1.30;;
21798;SDS011;24973;47.178;15.316;2023-09-19T12:52:05;1.60;;;1.00;;
21798;SDS011;24973;47.178;15.316;2023-09-19T12:54:55;2.77;;;1.10;;
21798;SDS011;24973;47.178;15.316;2023-09-19T12:57:44;4.10;;;2.00;;
21798;SDS011;24973;47.178;15.316;2023-09-19T13:00:47;1.20;;;1.07;;
21798;SDS011;24973;47.178;15.316;2023-09-19T13:03:38;1.83;;;1.30;;
21798;SDS011;24973;47.178;15.316;2023-09-19T13:06:35;2.30;;;1.43;;
21798;SDS011;24973;47.178;15.316;2023-09-19T13:09:27;1.98;;;1.45;;
21798;SDS011;24973;47.178;15.316;2023-09-19T13:12:38;1.60;;;1.00;;
21798;SDS011;24973;47.178;15.316;2023-09-19T13:15:29;2.70;;;1.30;;
21798;SDS011;24973;47.178;15.316;2023-09-19T13:18:42;2.22;;;1.20;;
21798;SDS011;24973;47.178;15.316;2023-09-19T13:21:32;3.33;;;1.30;;
21798;SDS011;24973;47.178;15.316;2023-09-19T13:24:24;2.03;;;1.73;;
21798;SDS011;24973;47.178;15.316;2023-09-19T13:27:17;3.58;;;1.20;;
21798;SDS011;24973;47.178;15.316;2023-09-19T13:30:08;1.65;;;1.10;;
21798;SDS011;24973;47.178;15.316;2023-09-19T13:33:04;5.22;;;1.52;;
21798;SDS011;24973;47.178;15.316;2023-09-19T13:35:54;1.52;;;1.02;;
21798;SDS011;24973;47.178;15.316;2023-09-19T13:38:43;2.83;;;1.25;;
21798;SDS011;24973;47.178;15.316;2023-09-19T13:41:35;1.52;;;1.20;;
21798;SDS011;24973;47.178;15.316;2023-09-19T13:44:24;4.28;;;1.25;;
21798;SDS011;24973;47.178;15.316;2023-09-19T13:47:17;1.48;;;1.23;;
21798;SDS011;24973;47.178;15.316;2023-09-19T13:50:11;2.08;;;1.33;;
21798;SDS011;24973;47.178;15.316;2023-09-19T13:53:00;6.40;;;1.10;;
21798;SDS011;24973;47.178;15.316;2023-09-19T13:55:50;1.20;;;1.10;;
21798;SDS011;24973;47.178;15.316;2023-09-19T13:58:39;3.92;;;3.13;;
21798;SDS011;24973;47.178;15.316;2023-09-19T14:01:29;4.95;;;1.83;;
21798;SDS011;24973;47.178;15.316;2023-09-19T14:04:19;2.17;;;1.67;;
21798;SDS011;24973;47.178;15.316;2023-09-19T14:07:09;1.67;;;0.82;;
21798;SDS011;24973;47.178;15.316;2023-09-19T14:09:58;1.77;;;1.40;;
21798;SDS011;24973;47.178;15.316;2023-09-19T14:12:47;4.03;;;1.52;;
21798;SDS011;24973;47.178;15.316;2023-09-19T14:15:36;2.88;;;1.05;;
21798;SDS011;24973;47.178;15.316;2023-09-19T14:18:25;1.27;;;1.15;;
21798;SDS011;24973;47.178;15.316;2023-09-19T14:21:16;2.13;;;1.13;;
21798;SDS011;24973;47.178;15.316;2023-09-19T14:24:05;3.03;;;1.05;;
21798;SDS011;24973;47.178;15.316;2023-09-19T14:26:56;2.88;;;1.30;;
21798;SDS011;24973;47.178;15.316;2023-09-19T14:29:50;3.40;;;1.17;;
21798;SDS011;24973;47.178;15.316;2023-09-19T14:32:39;1.90;;;1.05;;
21798;SDS011;24973;47.178;15.316;2023-09-19T14:35:28;2.08;;;1.00;;
21798;SDS011;24973;47.178;15.316;2023-09-19T14:38:18;2.03;;;1.13;;
21798;SDS011;24973;47.178;15.316;2023-09-19T14:41:06;2.75;;;1.13;;
21798;SDS011;24973;47.178;15.316;2023-09-19T14:43:55;3.25;;;1.10;;
21798;SDS011;24973;47.178;15.316;2023-09-19T14:46:44;1.60;;;1.42;;
21798;SDS011;24973;47.178;15.316;2023-09-19T14:49:33;1.65;;;0.88;;
21798;SDS011;24973;47.178;15.316;2023-09-19T14:52:24;1.42;;;0.98;;
21798;SDS011;24973;47.178;15.316;2023-09-19T14:55:16;2.40;;;1.00;;
21798;SDS011;24973;47.178;15.316;2023-09-19T14:58:06;4.82;;;1.20;;
21798;SDS011;24973;47.178;15.316;2023-09-19T15:01:01;1.83;;;1.00;;
21798;SDS011;24973;47.178;15.316;2023-09-19T15:03:51;3.10;;;1.10;;
21798;SDS011;24973;47.178;15.316;2023-09-19T15:06:42;4.00;;;1.42;;
21798;SDS011;24973;47.178;15.316;2023-09-19T15:09:31;1.20;;;1.10;;
21798;SDS011;24973;47.178;15.316;2023-09-19T15:12:22;2.33;;;1.08;;
21798;SDS011;24973;47.178;15.316;2023-09-19T15:15:11;4.97;;;1.15;;
21798;SDS011;24973;47.178;15.316;2023-09-19T15:18:00;2.88;;;1.17;;
21798;SDS011;24973;47.178;15.316;2023-09-19T15:20:49;1.30;;;1.20;;
21798;SDS011;24973;47.178;15.316;2023-09-19T15:23:39;1.67;;;1.33;;
21798;SDS011;24973;47.178;15.316;2023-09-19T15:26:30;1.17;;;1.03;;
21798;SDS011;24973;47.178;15.316;2023-09-19T15:29:20;1.63;;;1.20;;
21798;SDS011;24973;47.178;15.316;2023-09-19T15:32:09;1.93;;;1.10;;
21798;SDS011;24973;47.178;15.316;2023-09-19T15:34:58;6.30;;;1.27;;
21798;SDS011;24973;47.178;15.316;2023-09-19T15:37:47;1.20;;;1.10;;
21798;SDS011;24973;47.178;15.316;2023-09-19T15:40:36;1.10;;;0.83;;
21798;SDS011;24973;47.178;15.316;2023-09-19T15:43:34;3.17;;;1.53;;
21798;SDS011;24973;47.178;15.316;2023-09-19T15:46:25;2.40;;;1.50;;
21798;SDS011;24973;47.178;15.316;2023-09-19T15:49:14;2.20;;;1.60;;
21798;SDS011;24973;47.178;15.316;2023-09-19T15:52:03;3.10;;;1.30;;
21798;SDS011;24973;47.178;15.316;2023-09-19T15:54:53;4.60;;;1.43;;
21798;SDS011;24973;47.178;15.316;2023-09-19T15:57:42;1.17;;;0.83;;
21798;SDS011;24973;47.178;15.316;2023-09-19T16:00:31;4.00;;;1.97;;
21798;SDS011;24973;47.178;15.316;2023-09-19T16:03:24;4.10;;;1.63;;
21798;SDS011;24973;47.178;15.316;2023-09-19T16:06:14;2.70;;;1.23;;
21798;SDS011;24973;47.178;15.316;2023-09-19T16:09:04;3.87;;;1.50;;
21798;SDS011;24973;47.178;15.316;2023-09-19T16:11:53;3.33;;;1.37;;
21798;SDS011;24973;47.178;15.316;2023-09-19T16:14:42;2.10;;;1.30;;
21798;SDS011;24973;47.178;15.316;2023-09-19T16:17:31;4.77;;;1.40;;
21798;SDS011;24973;47.178;15.316;2023-09-19T16:20:22;3.97;;;1.90;;
21798;SDS011;24973;47.178;15.316;2023-09-19T16:23:11;2.43;;;1.60;;
21798;SDS011;24973;47.178;15.316;2023-09-19T16:26:00;2.57;;;1.70;;
21798;SDS011;24973;47.178;15.316;2023-09-19T16:28:52;1.83;;;1.40;;
21798;SDS011;24973;47.178;15.316;2023-09-19T16:31:42;2.30;;;1.73;;
21798;SDS011;24973;47.178;15.316;2023-09-19T16:34:31;1.00;;;0.90;;
21798;SDS011;24973;47.178;15.316;2023-09-19T16:37:22;3.70;;;1.73;;
21798;SDS011;24973;47.178;15.316;2023-09-19T16:40:11;1.90;;;1.73;;
21798;SDS011;24973;47.178;15.316;2023-09-19T16:43:00;2.23;;;1.63;;
21798;SDS011;24973;47.178;15.316;2023-09-19T16:45:53;3.57;;;1.77;;
21798;SDS011;24973;47.178;15.316;2023-09-19T16:48:43;2.63;;;1.37;;
21798;SDS011;24973;47.178;15.316;2023-09-19T16:51:36;2.83;;;1.60;;
21798;SDS011;24973;47.178;15.316;2023-09-19T16:54:29;5.33;;;2.03;;
21798;SDS011;24973;47.178;15.316;2023-09-19T16:57:18;4.47;;;1.80;;
21798;SDS011;24973;47.178;15.316;2023-09-19T17:00:09;1.73;;;1.40;;
21798;SDS011;24973;47.178;15.316;2023-09-19T17:03:01;2.07;;;1.47;;